aviador You're here:

KABY Decoded Metar

ALBANY in GA, USA
Report Time2017-09-22 23:53:00
UTC Time2017-09-23 00:22:41
Flight Rules vfr VFR
Wind070° at 03 kt
W.Decomp.*RWY 04: 2.5 kt HW 1.6 kt RCW
RWY 16: 0.1 kt HW 3 kt LCW
W.Rank070° ranks 6
Current wind is below 070° avg. (6.6)
Visibility9999 m
Phenomena:N/A
Clouds:N/A
Expected CloudBase > 3,600 ft AGL from Temp-Dew spread
CeilingNone
Temp28°C (ISA +13)
Dew Point19°C (58% RH)
Heat Index29.2°C
QNH1015 hPa
Density Alt1,952 ft
Elevation190 ft
Report Wrong Elevation
Raw Report
KABY 222353Z 07003KT 10SM CLR 28/19 A2996 RMK AO2 SLP144 T02780194
10333 20278 56001=

Extra information for KABY:More info

Metar Taf Metar & Taf Last 4 Metars F.Rules Stats Wind Profile Meteogram Temp Stats Airport Information Weather charts Add Link Nearby VenuesMetar ALERT Operation Metar Decoded Social comments

AIRNAV info for KABY